sensor_id;sensor_type;location;lat;lon;timestamp;pressure;altitude;pressure_sealevel;temperature;humidity
47761;BME280;33524;55.434;38.520;2023-09-30T00:01:41;100689.47;;;8.35;96.56
47761;BME280;33524;55.434;38.520;2023-09-30T00:04:12;100695.31;;;8.24;95.89
47761;BME280;33524;55.434;38.520;2023-09-30T00:06:41;100686.56;;;8.09;95.96
47761;BME280;33524;55.434;38.520;2023-09-30T00:09:09;100697.75;;;7.97;99.62
47761;BME280;33524;55.434;38.520;2023-09-30T00:11:38;100688.44;;;7.77;100.00
47761;BME280;33524;55.434;38.520;2023-09-30T00:14:06;100689.34;;;7.76;100.00
47761;BME280;33524;55.434;38.520;2023-09-30T00:16:34;100667.56;;;7.60;100.00
47761;BME280;33524;55.434;38.520;2023-09-30T00:19:03;100692.22;;;7.87;99.41
47761;BME280;33524;55.434;38.520;2023-09-30T00:21:31;100696.25;;;7.93;96.79
47761;BME280;33524;55.434;38.520;2023-09-30T00:23:59;100688.22;;;8.26;92.96
47761;BME280;33524;55.434;38.520;2023-09-30T00:26:27;100695.94;;;8.14;93.85
47761;BME280;33524;55.434;38.520;2023-09-30T00:28:55;100676.94;;;8.10;93.57
47761;BME280;33524;55.434;38.520;2023-09-30T00:31:24;100682.53;;;8.04;94.36
47761;BME280;33524;55.434;38.520;2023-09-30T00:33:52;100686.88;;;7.89;94.40
47761;BME280;33524;55.434;38.520;2023-09-30T00:36:21;100674.91;;;8.15;91.04
47761;BME280;33524;55.434;38.520;2023-09-30T00:38:50;100686.19;;;8.32;89.74
47761;BME280;33524;55.434;38.520;2023-09-30T00:41:18;100690.75;;;8.28;91.73
47761;BME280;33524;55.434;38.520;2023-09-30T00:43:46;100685.78;;;8.23;94.80
47761;BME280;33524;55.434;38.520;2023-09-30T00:46:35;100689.81;;;7.99;96.98
47761;BME280;33524;55.434;38.520;2023-09-30T00:49:04;100681.59;;;8.05;95.59
47761;BME280;33524;55.434;38.520;2023-09-30T00:51:32;100676.94;;;8.10;94.66
47761;BME280;33524;55.434;38.520;2023-09-30T00:54:01;100676.09;;;8.09;94.33
47761;BME280;33524;55.434;38.520;2023-09-30T00:56:30;100673.75;;;8.05;94.51
47761;BME280;33524;55.434;38.520;2023-09-30T00:58:59;100680.66;;;8.06;96.52
47761;BME280;33524;55.434;38.520;2023-09-30T01:01:27;100672.16;;;8.02;99.86
47761;BME280;33524;55.434;38.520;2023-09-30T01:03:55;100674.78;;;8.02;100.00
47761;BME280;33524;55.434;38.520;2023-09-30T01:06:27;100670.84;;;8.09;100.00
47761;BME280;33524;55.434;38.520;2023-09-30T01:08:55;100664.28;;;8.33;94.89
47761;BME280;33524;55.434;38.520;2023-09-30T01:11:24;100665.97;;;8.50;90.51
47761;BME280;33524;55.434;38.520;2023-09-30T01:13:53;100667.72;;;8.63;89.58
47761;BME280;33524;55.434;38.520;2023-09-30T01:16:23;100660.44;;;8.54;88.94
47761;BME280;33524;55.434;38.520;2023-09-30T01:18:54;100667.19;;;8.58;87.46
47761;BME280;33524;55.434;38.520;2023-09-30T01:21:23;100663.91;;;8.39;88.40
47761;BME280;33524;55.434;38.520;2023-09-30T01:23:53;100664.28;;;8.33;88.46
47761;BME280;33524;55.434;38.520;2023-09-30T01:26:21;100658.50;;;8.12;89.50
47761;BME280;33524;55.434;38.520;2023-09-30T01:28:51;100658.44;;;8.13;89.42
47761;BME280;33524;55.434;38.520;2023-09-30T01:31:19;100663.28;;;8.05;89.44
47761;BME280;33524;55.434;38.520;2023-09-30T01:33:47;100668.47;;;7.91;90.53
47761;BME280;33524;55.434;38.520;2023-09-30T01:36:16;100663.84;;;7.80;91.05
47761;BME280;33524;55.434;38.520;2023-09-30T01:38:45;100653.63;;;7.75;90.97
47761;BME280;33524;55.434;38.520;2023-09-30T01:41:13;100654.03;;;7.83;89.99
47761;BME280;33524;55.434;38.520;2023-09-30T01:43:44;100656.25;;;8.05;87.51
47761;BME280;33524;55.434;38.520;2023-09-30T01:46:12;100653.56;;;8.07;87.30
47761;BME280;33524;55.434;38.520;2023-09-30T01:48:40;100655.41;;;8.05;87.32
47761;BME280;33524;55.434;38.520;2023-09-30T01:51:09;100650.22;;;8.19;85.65
47761;BME280;33524;55.434;38.520;2023-09-30T01:53:37;100634.97;;;7.96;86.36
47761;BME280;33524;55.434;38.520;2023-09-30T01:56:05;100651.91;;;7.90;87.70
47761;BME280;33524;55.434;38.520;2023-09-30T01:58:34;100650.75;;;7.80;88.83
47761;BME280;33524;55.434;38.520;2023-09-30T02:01:09;100650.34;;;7.72;89.05
47761;BME280;33524;55.434;38.520;2023-09-30T02:03:37;100652.19;;;7.54;91.78
47761;BME280;33524;55.434;38.520;2023-09-30T02:06:06;100649.69;;;7.36;94.28
47761;BME280;33524;55.434;38.520;2023-09-30T02:08:34;100644.34;;;7.22;95.26
47761;BME280;33524;55.434;38.520;2023-09-30T02:11:05;100648.31;;;7.29;94.57
47761;BME280;33524;55.434;38.520;2023-09-30T02:13:34;100643.75;;;7.17;95.49
47761;BME280;33524;55.434;38.520;2023-09-30T02:16:03;100643.41;;;7.23;95.24
47761;BME280;33524;55.434;38.520;2023-09-30T02:18:31;100646.03;;;7.39;93.27
47761;BME280;33524;55.434;38.520;2023-09-30T02:21:00;100647.50;;;7.44;93.01
47761;BME280;33524;55.434;38.520;2023-09-30T02:23:28;100647.81;;;7.38;92.90
47761;BME280;33524;55.434;38.520;2023-09-30T02:25:56;100638.28;;;7.21;94.15
47761;BME280;33524;55.434;38.520;2023-09-30T02:28:24;100644.59;;;7.33;93.08
47761;BME280;33524;55.434;38.520;2023-09-30T02:30:53;100640.22;;;7.18;94.56
47761;BME280;33524;55.434;38.520;2023-09-30T02:33:21;100640.19;;;7.34;93.25
47761;BME280;33524;55.434;38.520;2023-09-30T02:35:49;100632.84;;;7.08;94.87
47761;BME280;33524;55.434;38.520;2023-09-30T02:38:18;100634.13;;;7.01;96.35
47761;BME280;33524;55.434;38.520;2023-09-30T02:40:48;100631.50;;;7.01;95.95
47761;BME280;33524;55.434;38.520;2023-09-30T02:43:19;100637.50;;;7.03;95.12
47761;BME280;33524;55.434;38.520;2023-09-30T02:45:48;100638.84;;;7.11;93.41
47761;BME280;33524;55.434;38.520;2023-09-30T02:48:18;100625.19;;;7.05;93.62
47761;BME280;33524;55.434;38.520;2023-09-30T02:50:46;100636.91;;;6.98;95.25
47761;BME280;33524;55.434;38.520;2023-09-30T02:53:15;100640.34;;;6.83;97.19
47761;BME280;33524;55.434;38.520;2023-09-30T02:55:43;100635.91;;;6.67;99.26
47761;BME280;33524;55.434;38.520;2023-09-30T02:58:11;100641.38;;;6.63;100.00
47761;BME280;33524;55.434;38.520;2023-09-30T03:00:39;100638.06;;;6.59;100.00
47761;BME280;33524;55.434;38.520;2023-09-30T03:03:08;100643.47;;;6.56;100.00
47761;BME280;33524;55.434;38.520;2023-09-30T03:05:36;100641.44;;;6.61;100.00
47761;BME280;33524;55.434;38.520;2023-09-30T03:08:05;100635.59;;;6.74;100.00
47761;BME280;33524;55.434;38.520;2023-09-30T03:10:33;100636.91;;;6.65;100.00
47761;BME280;33524;55.434;38.520;2023-09-30T03:13:02;100634.06;;;6.70;100.00
47761;BME280;33524;55.434;38.520;2023-09-30T03:15:31;100628.47;;;6.60;100.00
47761;BME280;33524;55.434;38.520;2023-09-30T03:17:59;100641.53;;;6.93;97.27
47761;BME280;33524;55.434;38.520;2023-09-30T03:20:28;100640.81;;;6.74;97.26
47761;BME280;33524;55.434;38.520;2023-09-30T03:22:56;100636.59;;;6.71;97.85
47761;BME280;33524;55.434;38.520;2023-09-30T03:25:25;100645.19;;;6.73;97.66
47761;BME280;33524;55.434;38.520;2023-09-30T03:27:53;100644.69;;;6.66;98.47
47761;BME280;33524;55.434;38.520;2023-09-30T03:30:21;100642.84;;;6.69;98.42
47761;BME280;33524;55.434;38.520;2023-09-30T03:32:50;100637.66;;;6.84;96.56
47761;BME280;33524;55.434;38.520;2023-09-30T03:35:18;100643.72;;;6.85;95.96
47761;BME280;33524;55.434;38.520;2023-09-30T03:37:47;100638.09;;;6.93;94.42
47761;BME280;33524;55.434;38.520;2023-09-30T03:40:15;100645.62;;;6.81;95.67
47761;BME280;33524;55.434;38.520;2023-09-30T03:42:48;100638.09;;;6.93;93.94
47761;BME280;33524;55.434;38.520;2023-09-30T03:45:19;100638.62;;;6.82;94.62
47761;BME280;33524;55.434;38.520;2023-09-30T03:47:48;100642.34;;;6.78;95.55
47761;BME280;33524;55.434;38.520;2023-09-30T03:50:16;100631.44;;;7.19;91.78
47761;BME280;33524;55.434;38.520;2023-09-30T03:52:45;100632.31;;;6.86;94.50
47761;BME280;33524;55.434;38.520;2023-09-30T03:55:16;100641.19;;;6.83;95.35
47761;BME280;33524;55.434;38.520;2023-09-30T03:57:48;100638.94;;;6.93;93.60
47761;BME280;33524;55.434;38.520;2023-09-30T04:00:19;100635.16;;;6.99;92.39
47761;BME280;33524;55.434;38.520;2023-09-30T04:02:49;100639.38;;;7.01;92.61
47761;BME280;33524;55.434;38.520;2023-09-30T04:05:19;100632.81;;;7.26;90.12
47761;BME280;33524;55.434;38.520;2023-09-30T04:07:48;100634.97;;;7.34;89.23
47761;BME280;33524;55.434;38.520;2023-09-30T04:10:16;100634.63;;;7.40;88.97
47761;BME280;33524;55.434;38.520;2023-09-30T04:12:48;100634.28;;;7.46;88.27
47761;BME280;33524;55.434;38.520;2023-09-30T04:15:17;100641.19;;;7.79;86.09
47761;BME280;33524;55.434;38.520;2023-09-30T04:17:46;100637.44;;;7.99;84.47
47761;BME280;33524;55.434;38.520;2023-09-30T04:20:14;100617.22;;;8.01;83.52
47761;BME280;33524;55.434;38.520;2023-09-30T04:22:51;100631.47;;;8.11;83.72
47761;BME280;33524;55.434;38.520;2023-09-30T04:25:25;100629.50;;;8.00;84.50
47761;BME280;33524;55.434;38.520;2023-09-30T04:27:54;100633.09;;;7.98;85.17
47761;BME280;33524;55.434;38.520;2023-09-30T04:30:23;100623.53;;;8.13;83.88
47761;BME280;33524;55.434;38.520;2023-09-30T04:32:51;100627.28;;;8.53;81.81
47761;BME280;33524;55.434;38.520;2023-09-30T04:35:20;100626.16;;;8.72;80.77
47761;BME280;33524;55.434;38.520;2023-09-30T04:37:47;100620.81;;;8.87;80.14
47761;BME280;33524;55.434;38.520;2023-09-30T04:40:15;100627.19;;;8.98;80.02
47761;BME280;33524;55.434;38.520;2023-09-30T04:42:54;100623.16;;;9.06;79.88
47761;BME280;33524;55.434;38.520;2023-09-30T04:45:26;100620.50;;;9.21;78.86
47761;BME280;33524;55.434;38.520;2023-09-30T04:47:55;100629.25;;;9.34;78.98
47761;BME280;33524;55.434;38.520;2023-09-30T04:50:26;100628.69;;;9.43;78.70
47761;BME280;33524;55.434;38.520;2023-09-30T04:52:55;100629.56;;;9.57;78.59
47761;BME280;33524;55.434;38.520;2023-09-30T04:55:24;100631.22;;;9.72;77.97
47761;BME280;33524;55.434;38.520;2023-09-30T04:57:52;100636.09;;;9.78;78.53
47761;BME280;33524;55.434;38.520;2023-09-30T05:00:20;100624.13;;;9.87;77.88
47761;BME280;33524;55.434;38.520;2023-09-30T05:02:55;100629.94;;;10.05;77.45
47761;BME280;33524;55.434;38.520;2023-09-30T05:05:24;100635.97;;;10.20;77.01
47761;BME280;33524;55.434;38.520;2023-09-30T05:07:52;100636.75;;;10.35;76.81
47761;BME280;33524;55.434;38.520;2023-09-30T05:10:20;100634.84;;;10.49;76.59
47761;BME280;33524;55.434;38.520;2023-09-30T05:12:49;100621.69;;;10.62;76.24
47761;BME280;33524;55.434;38.520;2023-09-30T05:15:18;100622.66;;;10.74;75.79
47761;BME280;33524;55.434;38.520;2023-09-30T05:17:48;100621.06;;;10.84;75.63
47761;BME280;33524;55.434;38.520;2023-09-30T05:20:17;100626.81;;;11.02;75.53
47761;BME280;33524;55.434;38.520;2023-09-30T05:22:46;100594.72;;;10.97;74.98
47761;BME280;33524;55.434;38.520;2023-09-30T05:25:15;100632.84;;;11.28;74.49
47761;BME280;33524;55.434;38.520;2023-09-30T05:27:46;100629.09;;;11.20;78.98
47761;BME280;33524;55.434;38.520;2023-09-30T05:30:17;100631.38;;;11.24;78.34
47761;BME280;33524;55.434;38.520;2023-09-30T05:32:48;100609.87;;;11.43;75.45
47761;BME280;33524;55.434;38.520;2023-09-30T05:35:16;100631.56;;;11.82;74.35
47761;BME280;33524;55.434;38.520;2023-09-30T05:37:45;100631.31;;;11.98;77.12
47761;BME280;33524;55.434;38.520;2023-09-30T05:40:14;100614.62;;;12.22;74.19
47761;BME280;33524;55.434;38.520;2023-09-30T05:42:55;100620.88;;;12.43;74.22
47761;BME280;33524;55.434;38.520;2023-09-30T05:45:31;100625.00;;;12.70;73.11
47761;BME280;33524;55.434;38.520;2023-09-30T05:48:03;100625.72;;;12.83;73.54
47761;BME280;33524;55.434;38.520;2023-09-30T05:50:35;100622.72;;;12.99;74.48
47761;BME280;33524;55.434;38.520;2023-09-30T05:53:04;100619.44;;;13.18;74.30
47761;BME280;33524;55.434;38.520;2023-09-30T05:55:32;100608.97;;;13.39;73.21
47761;BME280;33524;55.434;38.520;2023-09-30T05:58:01;100607.25;;;13.61;72.96
47761;BME280;33524;55.434;38.520;2023-09-30T06:00:29;100611.75;;;13.81;72.70
47761;BME280;33524;55.434;38.520;2023-09-30T06:03:04;100599.13;;;14.06;72.65
47761;BME280;33524;55.434;38.520;2023-09-30T06:05:34;100601.62;;;14.28;71.51
47761;BME280;33524;55.434;38.520;2023-09-30T06:08:03;100606.25;;;14.57;71.21
47761;BME280;33524;55.434;38.520;2023-09-30T06:10:32;100598.84;;;14.82;70.71
47761;BME280;33524;55.434;38.520;2023-09-30T06:13:02;100601.56;;;15.01;70.82
47761;BME280;33524;55.434;38.520;2023-09-30T06:15:30;100595.63;;;15.28;70.90
47761;BME280;33524;55.434;38.520;2023-09-30T06:18:00;100599.00;;;15.50;69.99
47761;BME280;33524;55.434;38.520;2023-09-30T06:20:28;100597.81;;;15.73;70.13
47761;BME280;33524;55.434;38.520;2023-09-30T06:22:59;100589.53;;;16.06;70.06
47761;BME280;33524;55.434;38.520;2023-09-30T06:25:31;100593.41;;;16.21;69.98
47761;BME280;33524;55.434;38.520;2023-09-30T06:28:01;100589.44;;;16.45;69.42
47761;BME280;33524;55.434;38.520;2023-09-30T06:30:31;100589.75;;;16.69;68.85
47761;BME280;33524;55.434;38.520;2023-09-30T06:33:02;100586.75;;;16.92;68.91
47761;BME280;33524;55.434;38.520;2023-09-30T06:35:34;100577.00;;;17.10;69.09
47761;BME280;33524;55.434;38.520;2023-09-30T06:38:05;100578.09;;;17.35;68.67
47761;BME280;33524;55.434;38.520;2023-09-30T06:40:36;100574.47;;;17.37;70.41
47761;BME280;33524;55.434;38.520;2023-09-30T06:43:07;100574.91;;;17.32;71.63
47761;BME280;33524;55.434;38.520;2023-09-30T06:45:37;100573.31;;;17.75;68.73
47761;BME280;33524;55.434;38.520;2023-09-30T06:48:11;100569.81;;;17.57;69.82
47761;BME280;33524;55.434;38.520;2023-09-30T06:50:45;100564.34;;;17.94;68.40
47761;BME280;33524;55.434;38.520;2023-09-30T06:53:17;100570.19;;;18.50;66.71
47761;BME280;33524;55.434;38.520;2023-09-30T06:55:52;100560.13;;;19.04;66.84
47761;BME280;33524;55.434;38.520;2023-09-30T06:58:24;100562.37;;;19.42;65.95
47761;BME280;33524;55.434;38.520;2023-09-30T07:00:53;100561.09;;;19.70;63.96
47761;BME280;33524;55.434;38.520;2023-09-30T07:03:23;100560.22;;;19.86;63.40
47761;BME280;33524;55.434;38.520;2023-09-30T07:05:55;100555.22;;;19.67;64.78
47761;BME280;33524;55.434;38.520;2023-09-30T07:08:24;100550.88;;;19.90;64.14
47761;BME280;33524;55.434;38.520;2023-09-30T07:10:53;100543.22;;;20.04;63.11
47761;BME280;33524;55.434;38.520;2023-09-30T07:13:23;100545.09;;;20.51;62.95
47761;BME280;33524;55.434;38.520;2023-09-30T07:15:52;100541.97;;;20.39;61.09
47761;BME280;33524;55.434;38.520;2023-09-30T07:18:30;100552.37;;;20.26;60.64
47761;BME280;33524;55.434;38.520;2023-09-30T07:21:02;100548.38;;;20.78;61.65
47761;BME280;33524;55.434;38.520;2023-09-30T07:23:31;100548.09;;;20.95;61.56
47761;BME280;33524;55.434;38.520;2023-09-30T07:26:00;100549.97;;;20.39;60.06
47761;BME280;33524;55.434;38.520;2023-09-30T07:28:29;100544.06;;;19.96;61.76
47761;BME280;33524;55.434;38.520;2023-09-30T07:30:58;100545.31;;;20.33;60.56
47761;BME280;33524;55.434;38.520;2023-09-30T07:33:29;100546.00;;;20.27;60.22
47761;BME280;33524;55.434;38.520;2023-09-30T07:36:01;100541.56;;;20.50;62.10
47761;BME280;33524;55.434;38.520;2023-09-30T07:38:29;100546.09;;;20.50;59.63
47761;BME280;33524;55.434;38.520;2023-09-30T07:41:05;100533.13;;;20.39;60.70
47761;BME280;33524;55.434;38.520;2023-09-30T07:43:39;100535.78;;;20.86;59.01
47761;BME280;33524;55.434;38.520;2023-09-30T07:46:08;100536.66;;;21.10;57.71
47761;BME280;33524;55.434;38.520;2023-09-30T07:48:38;100528.84;;;21.54;57.18
47761;BME280;33524;55.434;38.520;2023-09-30T07:51:09;100536.59;;;21.87;59.84
47761;BME280;33524;55.434;38.520;2023-09-30T07:53:41;100533.91;;;20.64;58.85
47761;BME280;33524;55.434;38.520;2023-09-30T07:56:10;100537.97;;;21.37;57.88
47761;BME280;33524;55.434;38.520;2023-09-30T07:58:39;100528.56;;;21.41;59.95
47761;BME280;33524;55.434;38.520;2023-09-30T08:01:08;100530.97;;;20.82;58.59
47761;BME280;33524;55.434;38.520;2023-09-30T08:03:38;100527.72;;;20.63;57.35
47761;BME280;33524;55.434;38.520;2023-09-30T08:06:07;100519.25;;;20.83;59.02
47761;BME280;33524;55.434;38.520;2023-09-30T08:08:42;100518.53;;;20.97;56.39
47761;BME280;33524;55.434;38.520;2023-09-30T08:11:10;100523.72;;;21.22;61.17
47761;BME280;33524;55.434;38.520;2023-09-30T08:13:40;100505.78;;;21.53;54.99
47761;BME280;33524;55.434;38.520;2023-09-30T08:16:09;100514.25;;;20.88;55.68
47761;BME280;33524;55.434;38.520;2023-09-30T08:18:39;100505.63;;;21.01;55.71
47761;BME280;33524;55.434;38.520;2023-09-30T08:21:11;100514.87;;;21.82;55.52
47761;BME280;33524;55.434;38.520;2023-09-30T08:23:39;100512.88;;;21.46;55.48
47761;BME280;33524;55.434;38.520;2023-09-30T08:26:18;100507.81;;;21.66;54.88
47761;BME280;33524;55.434;38.520;2023-09-30T08:28:56;100498.66;;;21.46;56.37
47761;BME280;33524;55.434;38.520;2023-09-30T08:31:28;100498.00;;;21.44;55.41
47761;BME280;33524;55.434;38.520;2023-09-30T08:33:56;100491.84;;;22.11;53.13
47761;BME280;33524;55.434;38.520;2023-09-30T08:36:25;100496.44;;;21.87;54.07
47761;BME280;33524;55.434;38.520;2023-09-30T08:38:53;100492.56;;;22.05;53.12
47761;BME280;33524;55.434;38.520;2023-09-30T08:41:32;100496.38;;;22.40;54.04
47761;BME280;33524;55.434;38.520;2023-09-30T08:44:02;100485.38;;;22.20;53.66
47761;BME280;33524;55.434;38.520;2023-09-30T08:46:35;100486.56;;;21.88;53.45
47761;BME280;33524;55.434;38.520;2023-09-30T08:49:07;100488.28;;;21.66;53.79
47761;BME280;33524;55.434;38.520;2023-09-30T08:51:38;100491.28;;;22.01;53.16
47761;BME280;33524;55.434;38.520;2023-09-30T08:54:10;100481.66;;;22.51;50.89
47761;BME280;33524;55.434;38.520;2023-09-30T08:56:42;100479.34;;;22.63;50.73
47761;BME280;33524;55.434;38.520;2023-09-30T08:59:13;100479.81;;;22.66;50.52
47761;BME280;33524;55.434;38.520;2023-09-30T09:01:45;100483.41;;;23.10;49.94
47761;BME280;33524;55.434;38.520;2023-09-30T09:04:15;100472.53;;;22.96;50.41
47761;BME280;33524;55.434;38.520;2023-09-30T09:06:45;100469.66;;;22.47;51.42
47761;BME280;33524;55.434;38.520;2023-09-30T09:09:16;100469.31;;;22.86;50.65
47761;BME280;33524;55.434;38.520;2023-09-30T09:11:52;100460.75;;;22.61;50.25
47761;BME280;33524;55.434;38.520;2023-09-30T09:14:40;100466.34;;;23.17;54.36
47761;BME280;33524;55.434;38.520;2023-09-30T09:17:45;100471.66;;;23.32;47.10
47761;BME280;33524;55.434;38.520;2023-09-30T09:20:20;100469.44;;;22.63;48.02
47761;BME280;33524;55.434;38.520;2023-09-30T09:22:53;100469.00;;;22.96;48.88
47761;BME280;33524;55.434;38.520;2023-09-30T09:25:23;100466.63;;;22.20;48.73
47761;BME280;33524;55.434;38.520;2023-09-30T09:27:56;100462.59;;;23.12;52.42
47761;BME280;33524;55.434;38.520;2023-09-30T09:30:31;100463.63;;;22.96;47.93
47761;BME280;33524;55.434;38.520;2023-09-30T09:33:35;100459.25;;;23.10;46.64
47761;BME280;33524;55.434;38.520;2023-09-30T09:36:09;100447.25;;;22.69;47.63
47761;BME280;33524;55.434;38.520;2023-09-30T09:38:48;100453.03;;;23.52;46.38
47761;BME280;33524;55.434;38.520;2023-09-30T09:41:20;100447.53;;;23.61;46.79
47761;BME280;33524;55.434;38.520;2023-09-30T09:43:49;100442.31;;;23.81;45.94
47761;BME280;33524;55.434;38.520;2023-09-30T09:46:23;100441.91;;;24.60;48.31
47761;BME280;33524;55.434;38.520;2023-09-30T09:48:57;100438.41;;;24.80;42.08
47761;BME280;33524;55.434;38.520;2023-09-30T09:51:34;100443.84;;;24.93;43.07
47761;BME280;33524;55.434;38.520;2023-09-30T09:54:06;100442.66;;;25.35;40.85
47761;BME280;33524;55.434;38.520;2023-09-30T09:56:49;100440.16;;;24.46;42.06
47761;BME280;33524;55.434;38.520;2023-09-30T09:59:22;100443.03;;;24.37;47.39
47761;BME280;33524;55.434;38.520;2023-09-30T10:02:19;100434.00;;;24.52;42.56
47761;BME280;33524;55.434;38.520;2023-09-30T10:04:52;100439.50;;;22.96;47.09
47761;BME280;33524;55.434;38.520;2023-09-30T10:07:36;100435.19;;;22.59;44.24
47761;BME280;33524;55.434;38.520;2023-09-30T10:10:14;100432.44;;;23.60;45.25
47761;BME280;33524;55.434;38.520;2023-09-30T10:12:47;100433.13;;;22.97;48.01
47761;BME280;33524;55.434;38.520;2023-09-30T10:18:07;100433.91;;;23.90;41.50
47761;BME280;33524;55.434;38.520;2023-09-30T10:20:46;100433.53;;;22.58;43.59
47761;BME280;33524;55.434;38.520;2023-09-30T10:23:18;100430.41;;;22.75;43.29
47761;BME280;33524;55.434;38.520;2023-09-30T10:25:54;100427.25;;;22.50;44.40
47761;BME280;33524;55.434;38.520;2023-09-30T10:28:37;100421.13;;;22.56;43.45
47761;BME280;33524;55.434;38.520;2023-09-30T10:31:17;100423.50;;;22.15;44.92
47761;BME280;33524;55.434;38.520;2023-09-30T10:34:17;100418.38;;;23.08;43.63
47761;BME280;33524;55.434;38.520;2023-09-30T10:36:55;100419.56;;;23.27;43.26
47761;BME280;33524;55.434;38.520;2023-09-30T10:39:57;100417.81;;;22.54;43.62
47761;BME280;33524;55.434;38.520;2023-09-30T10:42:49;100417.19;;;23.67;46.42
47761;BME280;33524;55.434;38.520;2023-09-30T10:45:53;100408.06;;;22.68;43.76
47761;BME280;33524;55.434;38.520;2023-09-30T10:51:14;100404.50;;;23.82;47.29
47761;BME280;33524;55.434;38.520;2023-09-30T10:53:52;100401.69;;;23.69;43.84
47761;BME280;33524;55.434;38.520;2023-09-30T10:56:37;100397.94;;;22.49;43.56
47761;BME280;33524;55.434;38.520;2023-09-30T10:59:17;100404.75;;;22.66;43.26
47761;BME280;33524;55.434;38.520;2023-09-30T11:01:50;100394.91;;;22.73;42.71
47761;BME280;33524;55.434;38.520;2023-09-30T11:04:49;100396.91;;;22.86;44.13
47761;BME280;33524;55.434;38.520;2023-09-30T11:07:30;100401.03;;;22.67;42.89
47761;BME280;33524;55.434;38.520;2023-09-30T11:10:16;100387.88;;;23.37;41.88
47761;BME280;33524;55.434;38.520;2023-09-30T11:12:57;100386.50;;;22.98;42.45
47761;BME280;33524;55.434;38.520;2023-09-30T11:15:29;100375.47;;;22.86;42.01
47761;BME280;33524;55.434;38.520;2023-09-30T11:20:47;100370.00;;;23.79;46.81
47761;BME280;33524;55.434;38.520;2023-09-30T11:23:22;100373.97;;;23.27;42.44
47761;BME280;33524;55.434;38.520;2023-09-30T11:26:03;100363.53;;;22.89;42.52
47761;BME280;33524;55.434;38.520;2023-09-30T11:28:40;100370.47;;;23.54;44.90
47761;BME280;33524;55.434;38.520;2023-09-30T11:31:12;100364.28;;;22.83;43.47
47761;BME280;33524;55.434;38.520;2023-09-30T11:33:50;100360.97;;;23.02;42.50
47761;BME280;33524;55.434;38.520;2023-09-30T11:36:28;100366.31;;;22.59;43.29
47761;BME280;33524;55.434;38.520;2023-09-30T11:39:02;100366.81;;;22.69;43.06
47761;BME280;33524;55.434;38.520;2023-09-30T11:41:41;100357.72;;;22.64;42.14
47761;BME280;33524;55.434;38.520;2023-09-30T11:44:14;100355.87;;;22.64;42.12
47761;BME280;33524;55.434;38.520;2023-09-30T11:46:53;100350.97;;;22.96;43.09
47761;BME280;33524;55.434;38.520;2023-09-30T11:49:35;100361.31;;;23.21;42.93
47761;BME280;33524;55.434;38.520;2023-09-30T11:52:13;100350.88;;;23.61;42.95
47761;BME280;33524;55.434;38.520;2023-09-30T11:54:55;100342.53;;;23.49;41.62
47761;BME280;33524;55.434;38.520;2023-09-30T11:57:30;100343.38;;;23.49;43.72
47761;BME280;33524;55.434;38.520;2023-09-30T12:00:00;100347.16;;;23.33;41.76
47761;BME280;33524;55.434;38.520;2023-09-30T12:02:34;100338.19;;;23.48;41.82
47761;BME280;33524;55.434;38.520;2023-09-30T12:05:20;100343.53;;;23.41;42.06
47761;BME280;33524;55.434;38.520;2023-09-30T12:07:56;100333.59;;;24.18;39.81
47761;BME280;33524;55.434;38.520;2023-09-30T12:10:34;100330.50;;;24.21;39.59
47761;BME280;33524;55.434;38.520;2023-09-30T12:13:19;100332.84;;;23.89;40.30
47761;BME280;33524;55.434;38.520;2023-09-30T12:16:11;100322.03;;;24.24;39.46
47761;BME280;33524;55.434;38.520;2023-09-30T12:18:58;100324.97;;;24.36;39.60
47761;BME280;33524;55.434;38.520;2023-09-30T12:21:35;100323.16;;;23.95;40.27
47761;BME280;33524;55.434;38.520;2023-09-30T12:24:18;100319.97;;;24.26;39.76
47761;BME280;33524;55.434;38.520;2023-09-30T12:26:58;100316.78;;;24.91;39.22
47761;BME280;33524;55.434;38.520;2023-09-30T12:29:30;100314.66;;;25.53;38.43
47761;BME280;33524;55.434;38.520;2023-09-30T12:32:03;100313.03;;;25.18;38.08
47761;BME280;33524;55.434;38.520;2023-09-30T12:34:40;100308.47;;;25.39;38.24
47761;BME280;33524;55.434;38.520;2023-09-30T12:37:13;100300.12;;;25.54;37.90
47761;BME280;33524;55.434;38.520;2023-09-30T12:39:43;100299.22;;;25.80;37.35
47761;BME280;33524;55.434;38.520;2023-09-30T12:42:13;100303.53;;;25.94;37.36
47761;BME280;33524;55.434;38.520;2023-09-30T12:44:48;100302.59;;;26.14;36.95
47761;BME280;33524;55.434;38.520;2023-09-30T12:47:17;100301.34;;;26.16;36.55
47761;BME280;33524;55.434;38.520;2023-09-30T12:49:52;100296.81;;;26.10;36.60
47761;BME280;33524;55.434;38.520;2023-09-30T12:52:23;100301.31;;;26.23;36.95
47761;BME280;33524;55.434;38.520;2023-09-30T12:54:53;100292.69;;;25.49;37.08
47761;BME280;33524;55.434;38.520;2023-09-30T12:57:24;100285.50;;;25.95;37.10
47761;BME280;33524;55.434;38.520;2023-09-30T12:59:56;100279.97;;;26.22;36.65
47761;BME280;33524;55.434;38.520;2023-09-30T13:02:25;100289.56;;;26.11;36.41
47761;BME280;33524;55.434;38.520;2023-09-30T13:05:11;100279.41;;;26.45;35.68
47761;BME280;33524;55.434;38.520;2023-09-30T13:08:14;100279.66;;;26.68;35.06
47761;BME280;33524;55.434;38.520;2023-09-30T13:10:45;100285.38;;;26.78;35.29
47761;BME280;33524;55.434;38.520;2023-09-30T13:13:26;100280.38;;;26.82;34.88
47761;BME280;33524;55.434;38.520;2023-09-30T13:16:00;100275.31;;;26.67;35.15
47761;BME280;33524;55.434;38.520;2023-09-30T13:18:29;100277.63;;;26.64;35.04